Pagina principale
METAR-TAF:

METAR-TAF

Aeroporti :

Portage Glacier, Alaska, Stati Uniti

latitudine: 60-47N, longitudine: 148-50W, altezza: 29 m

Osservazione

Il bollettino è stato emesso 41 minuti fa, alle 14:53 UTC
Vento 14 kt da est con raffiche fino a 29 kt, variando fra nord-est e sud-est
Temperature 6°C
Umidità 75%
Pressione 1014 hPa
Visibilità: 8.0 km
Nubi sparse ad un'altezza di 1700 ft
Cielo coperto ad un'altezza di 2400 ft
pioggia debole

METAR: PATO 221453Z AUTO 09014G29KT 050V140 5SM -RA SCT017 OVC024 06/02 A2994 RMK AO2 PK WND 09038/1432 SLP141 P0000 60000 T00560022 58007 TSNO

Ora: 07:34 (15:34 UTC)


TAF: mancante

Osservazioni e previsioni meteorologiche di più di 4000 aeroporti (messaggi METAR e TAF).

Le stazioni disponibili sono rappresentate dai dischi gialli e rossi sulla carta.

Puntare il mouse per vedere il nome della stazione.

Clicca sopra per visualizzare le osservazioni e previsioni meteorologiche.

Per cambiare la mappa : fare clic sui pulsanti verdi con una croce nera per ingrandire, il pulsante verde con un trattino per diminuire, o sulla freccia verde per le mappe adiacenti.


METAR-TAF: